createdAt,value
2019-03-21T00:00:19.210Z,12.73
2019-03-21T00:02:59.882Z,13.75
2019-03-21T00:05:40.571Z,14.35
2019-03-21T00:08:23.729Z,13.32
2019-03-21T00:12:00.158Z,12.90
2019-03-21T00:15:12.889Z,10.98
2019-03-21T00:18:00.995Z,10.23
2019-03-21T00:20:41.577Z,12.53
2019-03-21T00:23:22.244Z,11.68
2019-03-21T00:26:02.872Z,10.28
2019-03-21T00:28:43.903Z,12.15
2019-03-21T00:31:24.508Z,9.88
2019-03-21T00:34:05.283Z,13.65
2019-03-21T00:36:46.217Z,11.63
2019-03-21T00:39:32.816Z,11.60
2019-03-21T00:42:09.266Z,11.63
2019-03-21T00:44:51.014Z,10.10
2019-03-21T00:47:31.908Z,12.85
2019-03-21T00:50:15.787Z,10.10
2019-03-21T00:52:56.933Z,14.75
2019-03-21T00:55:39.023Z,9.73
2019-03-21T00:58:19.640Z,14.07
2019-03-21T01:01:01.265Z,8.95
2019-03-21T01:03:41.872Z,11.53
2019-03-21T01:06:22.724Z,12.40
2019-03-21T01:09:04.485Z,13.95
2019-03-21T01:11:45.310Z,12.58
2019-03-21T01:14:30.057Z,11.48
2019-03-21T01:17:08.358Z,10.15
2019-03-21T01:19:48.844Z,9.13
2019-03-21T01:22:30.167Z,13.75
2019-03-21T01:25:15.628Z,15.30
2019-03-21T01:27:56.455Z,10.70
2019-03-21T01:30:37.093Z,10.20
2019-03-21T01:33:17.721Z,10.25
2019-03-21T01:35:59.510Z,14.40
2019-03-21T01:38:42.472Z,12.80
2019-03-21T01:41:23.050Z,8.25
2019-03-21T01:44:03.800Z,10.85
2019-03-21T01:46:45.407Z,10.23
2019-03-21T01:49:25.973Z,9.65
2019-03-21T01:52:06.701Z,11.65
2019-03-21T01:54:47.328Z,10.75
2019-03-21T01:57:31.719Z,12.35
2019-03-21T02:00:17.852Z,13.88
2019-03-21T02:03:00.520Z,9.98
2019-03-21T02:05:41.216Z,10.03
2019-03-21T02:08:21.932Z,10.70
2019-03-21T02:11:02.765Z,12.85
2019-03-21T02:13:46.252Z,11.33
2019-03-21T02:16:26.800Z,11.20
2019-03-21T02:19:07.521Z,8.55
2019-03-21T02:21:48.144Z,8.65
2019-03-21T02:24:29.379Z,9.43
2019-03-21T02:27:10.105Z,11.40
2019-03-21T02:29:50.845Z,8.83
2019-03-21T02:32:32.569Z,10.23
2019-03-21T02:35:13.303Z,9.23
2019-03-21T02:37:54.545Z,8.58
2019-03-21T02:40:35.700Z,12.15
2019-03-21T02:43:16.472Z,11.18
2019-03-21T02:45:57.208Z,10.65
2019-03-21T02:48:38.510Z,7.97
2019-03-21T02:51:19.293Z,11.95
2019-03-21T02:54:00.351Z,8.90
2019-03-21T02:56:40.896Z,12.75
2019-03-21T02:59:21.917Z,9.85
2019-03-21T03:02:02.414Z,9.60
2019-03-21T03:04:44.952Z,9.30
2019-03-21T03:07:26.830Z,11.53
2019-03-21T03:10:12.634Z,8.83
2019-03-21T03:12:53.185Z,8.30
2019-03-21T03:15:34.319Z,11.20
2019-03-21T03:18:14.966Z,8.95
2019-03-21T03:20:55.771Z,9.45
2019-03-21T03:23:36.371Z,10.70
2019-03-21T03:26:17.601Z,11.15
2019-03-21T03:28:58.368Z,8.13
2019-03-21T03:31:38.954Z,13.03
2019-03-21T03:34:19.461Z,7.95
2019-03-21T03:37:00.297Z,9.63
2019-03-21T03:39:40.856Z,10.30
2019-03-21T03:42:21.618Z,11.03
2019-03-21T03:45:02.271Z,9.98
2019-03-21T03:47:42.951Z,8.63
2019-03-21T03:50:23.630Z,8.48
2019-03-21T03:53:04.929Z,10.60
2019-03-21T03:55:46.663Z,11.18
2019-03-21T03:58:27.779Z,10.55
2019-03-21T04:01:08.476Z,10.75
2019-03-21T04:03:49.220Z,9.25
2019-03-21T04:06:29.853Z,10.05
2019-03-21T04:09:11.235Z,8.93
2019-03-21T04:11:52.828Z,12.47
2019-03-21T04:14:33.665Z,9.75
2019-03-21T04:17:15.388Z,11.28
2019-03-21T04:19:59.059Z,12.13
2019-03-21T04:22:39.727Z,10.90
2019-03-21T04:25:25.488Z,10.78
2019-03-21T04:28:06.134Z,8.35
2019-03-21T04:30:48.111Z,9.75
2019-03-21T04:33:29.078Z,9.63
2019-03-21T04:36:09.854Z,9.18
2019-03-21T04:38:50.688Z,9.08
2019-03-21T04:41:31.367Z,10.88
2019-03-21T04:44:12.020Z,15.25
2019-03-21T04:46:53.110Z,13.05
2019-03-21T04:49:33.656Z,9.05
2019-03-21T04:52:14.606Z,9.73
2019-03-21T04:54:55.244Z,8.90
2019-03-21T04:57:35.906Z,15.88
2019-03-21T05:00:23.592Z,12.10
2019-03-21T05:03:05.871Z,10.80
2019-03-21T05:05:47.604Z,13.72
2019-03-21T05:08:28.663Z,15.70
2019-03-21T05:11:09.215Z,12.53
2019-03-21T05:13:49.827Z,14.87
2019-03-21T05:16:30.630Z,15.38
2019-03-21T05:19:11.384Z,12.35
2019-03-21T05:21:51.954Z,12.15
2019-03-21T05:24:32.746Z,18.12
2019-03-21T05:27:13.398Z,11.45
2019-03-21T05:29:54.763Z,10.40
2019-03-21T05:32:35.510Z,15.00
2019-03-21T05:35:16.466Z,12.82
2019-03-21T05:37:57.168Z,10.30
2019-03-21T05:40:38.195Z,12.68
2019-03-21T05:43:33.447Z,15.45
2019-03-21T05:46:25.747Z,11.85
2019-03-21T05:48:56.377Z,14.15
2019-03-21T05:51:37.003Z,18.52
2019-03-21T05:54:17.481Z,12.55
2019-03-21T05:56:58.172Z,15.93
2019-03-21T05:59:38.860Z,16.45
2019-03-21T06:02:19.665Z,14.38
2019-03-21T06:05:00.331Z,16.87
2019-03-21T06:08:11.456Z,16.45
2019-03-21T06:10:52.284Z,24.95
2019-03-21T06:13:33.045Z,19.75
2019-03-21T06:16:13.791Z,18.32
2019-03-21T06:19:25.200Z,17.20
2019-03-21T06:23:05.371Z,18.10
2019-03-21T06:26:14.358Z,21.68
2019-03-21T06:28:55.106Z,17.95
2019-03-21T06:31:35.774Z,17.92
2019-03-21T06:34:16.362Z,13.15
2019-03-21T06:36:57.325Z,14.18
2019-03-21T06:39:37.938Z,17.98
2019-03-21T06:42:18.537Z,18.60
2019-03-21T06:44:59.205Z,18.80
2019-03-21T06:47:40.001Z,17.50
2019-03-21T06:50:20.773Z,16.37
2019-03-21T06:53:03.282Z,25.15
2019-03-21T06:55:44.136Z,31.68
2019-03-21T06:58:25.021Z,17.23
2019-03-21T07:01:05.673Z,18.32
2019-03-21T07:03:46.490Z,18.67
2019-03-21T07:06:26.785Z,19.00
2019-03-21T07:09:09.240Z,17.77
2019-03-21T07:11:49.830Z,14.97
2019-03-21T07:14:30.247Z,17.83
2019-03-21T07:17:14.529Z,17.13
2019-03-21T07:19:55.691Z,16.87
2019-03-21T07:22:38.423Z,18.17
2019-03-21T07:25:20.179Z,16.23
2019-03-21T07:28:00.515Z,20.77
2019-03-21T07:30:40.963Z,15.23
2019-03-21T07:33:21.268Z,14.97
2019-03-21T07:36:03.859Z,17.97
2019-03-21T07:38:46.626Z,16.30
2019-03-21T07:41:31.051Z,15.70
2019-03-21T07:44:12.633Z,13.83
2019-03-21T07:46:53.034Z,15.40
2019-03-21T07:49:33.318Z,13.23
2019-03-21T07:52:13.795Z,14.80
2019-03-21T07:54:54.359Z,13.33
2019-03-21T07:57:41.585Z,15.50
2019-03-21T08:00:22.433Z,16.30
2019-03-21T08:03:03.249Z,18.47
2019-03-21T08:05:43.483Z,19.00
2019-03-21T08:08:24.037Z,18.43
2019-03-21T08:11:04.299Z,17.17
2019-03-21T08:13:45.361Z,20.83
2019-03-21T08:16:27.111Z,18.93
2019-03-21T08:19:07.554Z,20.60
2019-03-21T08:21:49.563Z,19.93
2019-03-21T08:24:29.809Z,23.20
2019-03-21T08:27:10.093Z,21.63
2019-03-21T08:29:50.578Z,20.17
2019-03-21T08:32:30.760Z,18.30
2019-03-21T08:35:12.525Z,18.67
2019-03-21T08:37:55.813Z,19.97
2019-03-21T08:40:42.734Z,20.07
2019-03-21T08:43:23.502Z,19.60
2019-03-21T08:46:04.421Z,18.77
2019-03-21T08:48:44.771Z,18.13
2019-03-21T08:51:25.265Z,23.43
2019-03-21T08:54:06.077Z,16.90
2019-03-21T08:56:46.726Z,17.70
2019-03-21T08:59:30.671Z,20.77
2019-03-21T09:02:11.035Z,17.07
2019-03-21T09:04:52.573Z,20.23
2019-03-21T09:07:32.884Z,19.47
2019-03-21T09:10:14.711Z,22.00
2019-03-21T09:12:55.146Z,17.17
2019-03-21T09:15:35.568Z,18.37
2019-03-21T09:18:16.288Z,19.20
2019-03-21T09:20:56.556Z,18.77
2019-03-21T09:23:36.994Z,20.07
2019-03-21T09:26:17.293Z,16.57
2019-03-21T09:28:57.966Z,15.43
2019-03-21T09:31:38.192Z,18.63
2019-03-21T09:34:18.488Z,16.90
2019-03-21T09:36:58.844Z,17.70
2019-03-21T09:39:39.344Z,15.67
2019-03-21T09:42:19.524Z,17.47
2019-03-21T09:45:01.037Z,22.17
2019-03-21T09:47:41.657Z,16.60
2019-03-21T09:50:32.566Z,16.43
2019-03-21T09:53:12.789Z,16.57
2019-03-21T09:55:53.330Z,15.20
2019-03-21T09:58:36.961Z,17.43
2019-03-21T10:01:17.445Z,15.43
2019-03-21T10:03:57.654Z,15.80
2019-03-21T10:06:38.427Z,15.30
2019-03-21T10:09:20.031Z,15.57
2019-03-21T10:12:00.998Z,17.73
2019-03-21T10:14:41.299Z,16.37
2019-03-21T10:17:21.640Z,13.83
2019-03-21T10:20:02.173Z,13.40
2019-03-21T10:22:42.660Z,12.37
2019-03-21T10:25:23.141Z,14.33
2019-03-21T10:28:03.657Z,12.87
2019-03-21T10:30:44.548Z,13.37
2019-03-21T10:33:27.245Z,15.03
2019-03-21T10:36:07.743Z,13.37
2019-03-21T10:38:51.848Z,12.97
2019-03-21T10:41:32.042Z,15.80
2019-03-21T10:44:12.690Z,11.67
2019-03-21T10:46:53.168Z,11.00
2019-03-21T10:49:33.575Z,14.33
2019-03-21T10:52:14.062Z,13.00
2019-03-21T10:54:54.354Z,12.83
2019-03-21T10:57:34.896Z,11.23
2019-03-21T11:00:15.296Z,12.77
2019-03-21T11:02:55.672Z,12.80
2019-03-21T11:05:36.526Z,14.43
2019-03-21T11:08:16.845Z,13.90
2019-03-21T11:10:57.444Z,18.17
2019-03-21T11:13:38.145Z,12.53
2019-03-21T11:16:18.495Z,12.23
2019-03-21T11:19:00.150Z,12.47
2019-03-21T11:21:40.610Z,11.17
2019-03-21T11:24:20.924Z,12.50
2019-03-21T11:27:01.826Z,10.47
2019-03-21T11:29:42.486Z,12.10
2019-03-21T11:32:23.135Z,13.90
2019-03-21T11:35:03.493Z,10.17
2019-03-21T11:37:44.041Z,13.10
2019-03-21T11:40:24.361Z,11.50
2019-03-21T11:43:08.088Z,11.10
2019-03-21T11:45:49.484Z,11.00
2019-03-21T11:48:30.988Z,11.07
2019-03-21T11:51:11.525Z,11.03
2019-03-21T11:53:54.716Z,12.23
2019-03-21T11:56:35.088Z,8.07
2019-03-21T11:59:15.534Z,12.80
2019-03-21T12:01:56.328Z,11.37
2019-03-21T12:04:36.983Z,11.57
2019-03-21T12:07:17.122Z,9.33
2019-03-21T12:09:57.617Z,11.77
2019-03-21T12:12:37.967Z,8.67
2019-03-21T12:15:18.487Z,9.90
2019-03-21T12:18:00.047Z,8.37
2019-03-21T12:20:40.918Z,8.10
2019-03-21T12:23:21.182Z,8.67
2019-03-21T12:26:05.414Z,8.60
2019-03-21T12:28:45.685Z,8.27
2019-03-21T12:31:25.896Z,8.70
2019-03-21T12:34:06.359Z,10.53
2019-03-21T12:36:46.674Z,7.13
2019-03-21T12:39:28.987Z,9.77
2019-03-21T12:42:09.426Z,10.37
2019-03-21T12:44:49.703Z,8.87
2019-03-21T12:47:31.538Z,8.67
2019-03-21T12:50:13.468Z,8.10
2019-03-21T12:52:53.912Z,7.53
2019-03-21T12:55:34.116Z,7.80
2019-03-21T12:58:19.310Z,7.40
2019-03-21T13:00:59.649Z,8.57
2019-03-21T13:03:40.174Z,7.17
2019-03-21T13:06:20.430Z,9.87
2019-03-21T13:09:01.182Z,8.63
2019-03-21T13:11:43.508Z,9.23
2019-03-21T13:14:24.009Z,8.13
2019-03-21T13:17:07.123Z,9.40
2019-03-21T13:19:47.545Z,7.70
2019-03-21T13:22:27.806Z,8.33
2019-03-21T13:25:08.360Z,8.57
2019-03-21T13:27:48.589Z,10.67
2019-03-21T13:30:28.919Z,8.93
2019-03-21T13:33:13.463Z,9.10
2019-03-21T13:35:54.305Z,9.40
2019-03-21T13:38:34.637Z,22.20
2019-03-21T13:41:16.349Z,10.93
2019-03-21T13:43:56.660Z,14.80
2019-03-21T13:46:36.883Z,11.17
2019-03-21T13:49:17.126Z,10.90
2019-03-21T13:51:57.596Z,9.60
2019-03-21T13:54:39.417Z,9.30
2019-03-21T13:57:29.345Z,11.67
2019-03-21T14:00:16.271Z,9.87
2019-03-21T14:02:56.735Z,9.77
2019-03-21T14:05:38.493Z,10.43
2019-03-21T14:08:19.399Z,10.50
2019-03-21T14:11:00.924Z,10.10
2019-03-21T14:13:41.486Z,9.80
2019-03-21T14:16:21.826Z,10.57
2019-03-21T14:19:02.152Z,9.40
2019-03-21T14:21:42.543Z,11.30
2019-03-21T14:24:22.975Z,13.13
2019-03-21T14:27:03.363Z,11.07
2019-03-21T14:29:44.067Z,11.70
2019-03-21T14:32:25.551Z,10.13
2019-03-21T14:35:06.959Z,10.03
2019-03-21T14:37:47.216Z,11.03
2019-03-21T14:40:27.750Z,11.60
2019-03-21T14:43:07.976Z,10.60
2019-03-21T14:45:48.252Z,9.87
2019-03-21T14:48:28.659Z,12.10
2019-03-21T14:51:08.950Z,10.93
2019-03-21T14:53:49.370Z,11.27
2019-03-21T14:56:31.472Z,12.33
2019-03-21T14:59:12.196Z,11.93
2019-03-21T15:01:53.931Z,10.07
2019-03-21T15:04:34.416Z,10.30
2019-03-21T15:07:14.647Z,13.23
2019-03-21T15:09:54.938Z,12.83
2019-03-21T15:12:35.621Z,9.60
2019-03-21T15:15:17.593Z,13.10
2019-03-21T15:17:58.818Z,11.47
2019-03-21T15:20:39.266Z,11.37
2019-03-21T15:23:20.889Z,12.67
2019-03-21T15:26:01.532Z,11.53
2019-03-21T15:28:42.567Z,14.23
2019-03-21T15:31:25.887Z,11.70
2019-03-21T15:34:08.952Z,13.60
2019-03-21T15:36:49.920Z,11.80
2019-03-21T15:39:31.439Z,12.67
2019-03-21T15:42:13.450Z,12.80
2019-03-21T15:45:07.201Z,10.67
2019-03-21T15:47:37.383Z,10.77
2019-03-21T15:50:37.385Z,12.97
2019-03-21T15:53:16.896Z,11.60
2019-03-21T15:55:57.613Z,11.47
2019-03-21T15:58:37.949Z,14.60
2019-03-21T16:01:18.590Z,11.47
2019-03-21T16:03:59.383Z,12.53
2019-03-21T16:06:40.113Z,13.07
2019-03-21T16:09:20.564Z,12.77
2019-03-21T16:12:01.052Z,11.47
2019-03-21T16:14:44.883Z,14.37
2019-03-21T16:18:45.082Z,15.17
2019-03-21T16:21:25.552Z,13.30
2019-03-21T16:24:05.983Z,12.70
2019-03-21T16:26:48.677Z,15.30
2019-03-21T16:29:29.045Z,13.70
2019-03-21T16:32:09.451Z,17.83
2019-03-21T16:34:52.289Z,12.73
2019-03-21T16:37:36.723Z,14.67
2019-03-21T16:40:18.641Z,15.07
2019-03-21T16:42:59.744Z,17.97
2019-03-21T16:45:40.511Z,13.70
2019-03-21T16:48:21.504Z,18.70
2019-03-21T16:51:03.864Z,13.87
2019-03-21T16:53:44.722Z,16.53
2019-03-21T16:56:27.005Z,18.93
2019-03-21T16:59:09.849Z,19.57
2019-03-21T17:01:50.736Z,19.37
2019-03-21T17:04:39.618Z,18.37
2019-03-21T17:07:23.140Z,22.70
2019-03-21T17:10:03.254Z,18.33
2019-03-21T17:12:44.482Z,17.53
2019-03-21T17:15:25.644Z,19.70
2019-03-21T17:18:06.373Z,22.15
2019-03-21T17:20:47.901Z,23.00
2019-03-21T17:23:28.745Z,19.87
2019-03-21T17:26:12.349Z,19.85
2019-03-21T17:28:53.085Z,21.73
2019-03-21T17:31:34.399Z,20.37
2019-03-21T17:34:15.488Z,23.00
2019-03-21T17:36:56.665Z,22.32
2019-03-21T17:39:40.930Z,21.10
2019-03-21T17:42:21.782Z,22.85
2019-03-21T17:45:02.438Z,21.48
2019-03-21T17:47:43.330Z,23.22
2019-03-21T17:50:25.664Z,23.98
2019-03-21T17:53:07.301Z,23.00
2019-03-21T17:55:48.152Z,28.42
2019-03-21T17:58:31.326Z,21.23
2019-03-21T18:01:12.299Z,32.20
2019-03-21T18:03:54.575Z,29.27
2019-03-21T18:06:35.180Z,27.67
2019-03-21T18:09:16.087Z,25.00
2019-03-21T18:11:56.579Z,24.15
2019-03-21T18:14:37.382Z,25.80
2019-03-21T18:17:21.472Z,29.75
2019-03-21T18:20:02.195Z,25.27
2019-03-21T18:22:45.543Z,30.85
2019-03-21T18:25:25.283Z,35.08
2019-03-21T18:28:08.544Z,32.98
2019-03-21T18:30:48.863Z,28.87
2019-03-21T18:33:29.554Z,31.80
2019-03-21T18:36:10.686Z,25.80
2019-03-21T18:38:58.629Z,28.25
2019-03-21T18:41:33.579Z,28.90
2019-03-21T18:44:17.651Z,29.63
2019-03-21T18:46:58.552Z,27.40
2019-03-21T18:49:40.392Z,27.45
2019-03-21T18:52:21.749Z,30.57
2019-03-21T18:55:06.624Z,25.50
2019-03-21T18:57:47.769Z,29.70
2019-03-21T19:00:28.805Z,25.65
2019-03-21T19:03:11.798Z,33.58
2019-03-21T19:05:53.288Z,41.33
2019-03-21T19:08:34.591Z,29.25
2019-03-21T19:11:15.780Z,35.05
2019-03-21T19:13:58.127Z,30.85
2019-03-21T19:16:40.578Z,27.67
2019-03-21T19:19:22.859Z,34.03
2019-03-21T19:22:04.109Z,33.08
2019-03-21T19:24:44.932Z,31.27
2019-03-21T19:27:26.105Z,32.17
2019-03-21T19:30:09.364Z,28.73
2019-03-21T19:32:50.833Z,28.83
2019-03-21T19:35:31.844Z,28.57
2019-03-21T19:38:14.911Z,32.78
2019-03-21T19:41:01.091Z,28.60
2019-03-21T19:43:43.301Z,32.90
2019-03-21T19:46:26.032Z,35.60
2019-03-21T19:49:08.666Z,32.05
2019-03-21T19:51:50.110Z,40.35
2019-03-21T19:54:34.652Z,40.98
2019-03-21T19:57:17.790Z,46.73
2019-03-21T19:59:58.889Z,44.30
2019-03-21T20:02:40.102Z,50.67
2019-03-21T20:05:22.428Z,45.85
2019-03-21T20:08:05.931Z,49.13
2019-03-21T20:10:47.197Z,44.53
2019-03-21T20:13:28.775Z,44.95
2019-03-21T20:16:13.510Z,48.48
2019-03-21T20:18:54.842Z,44.70
2019-03-21T20:21:47.119Z,41.35
2019-03-21T20:24:18.787Z,31.20
2019-03-21T20:27:01.109Z,36.03
2019-03-21T20:29:45.217Z,36.80
2019-03-21T20:32:26.550Z,37.13
2019-03-21T20:35:09.673Z,42.48
2019-03-21T20:37:53.716Z,38.67
2019-03-21T20:40:41.292Z,38.92
2019-03-21T20:43:23.681Z,34.45
2019-03-21T20:46:04.443Z,39.42
2019-03-21T20:48:43.622Z,41.50
2019-03-21T20:51:24.596Z,38.02
2019-03-21T20:54:10.372Z,46.37
2019-03-21T20:56:52.468Z,38.88
2019-03-21T20:59:33.229Z,37.95
2019-03-21T21:02:13.951Z,43.55
2019-03-21T21:04:54.648Z,38.90
2019-03-21T21:07:35.437Z,38.45
2019-03-21T21:10:17.055Z,39.00
2019-03-21T21:12:59.114Z,36.53
2019-03-21T21:15:39.697Z,41.30
2019-03-21T21:18:20.376Z,36.55
2019-03-21T21:21:01.309Z,40.55
2019-03-21T21:23:42.402Z,39.95
2019-03-21T21:26:23.211Z,35.40
2019-03-21T21:29:04.099Z,34.73
2019-03-21T21:31:45.282Z,34.58
2019-03-21T21:34:26.334Z,38.23
2019-03-21T21:37:11.768Z,33.60
2019-03-21T21:39:54.427Z,31.10
2019-03-21T21:42:35.486Z,30.65
2019-03-21T21:45:16.961Z,31.68
2019-03-21T21:48:00.045Z,29.60
2019-03-21T21:50:40.691Z,27.52
2019-03-21T21:53:21.331Z,32.20
2019-03-21T21:56:04.545Z,34.78
2019-03-21T21:58:45.073Z,29.18
2019-03-21T22:01:27.135Z,30.95
2019-03-21T22:04:16.796Z,30.20
2019-03-21T22:06:58.177Z,28.10
2019-03-21T22:09:39.328Z,31.90
2019-03-21T22:12:20.232Z,30.17
2019-03-21T22:15:00.910Z,30.90
2019-03-21T22:17:41.952Z,35.00
2019-03-21T22:20:22.701Z,28.42
2019-03-21T22:23:03.534Z,27.82
2019-03-21T22:25:45.309Z,28.65
2019-03-21T22:28:26.073Z,31.35
2019-03-21T22:31:08.082Z,28.52
2019-03-21T22:33:49.240Z,31.15
2019-03-21T22:36:29.966Z,29.18
2019-03-21T22:39:11.206Z,33.65
2019-03-21T22:41:51.878Z,29.90
2019-03-21T22:44:32.724Z,30.08
2019-03-21T22:47:13.335Z,29.00
2019-03-21T22:49:55.053Z,29.25
2019-03-21T22:52:35.900Z,30.10
2019-03-21T22:55:16.707Z,30.95
2019-03-21T22:57:57.380Z,32.05
2019-03-21T23:00:41.564Z,30.05
2019-03-21T23:03:25.411Z,35.40
2019-03-21T23:06:06.243Z,30.88
2019-03-21T23:08:47.080Z,35.05
2019-03-21T23:11:27.615Z,31.27
2019-03-21T23:14:08.220Z,32.23
2019-03-21T23:16:49.056Z,28.83
2019-03-21T23:19:30.486Z,31.33
2019-03-21T23:22:11.254Z,33.38
2019-03-21T23:24:51.988Z,30.15
2019-03-21T23:27:32.686Z,29.57
2019-03-21T23:30:13.629Z,29.70
2019-03-21T23:32:55.841Z,30.30
2019-03-21T23:35:36.505Z,32.75
2019-03-21T23:38:17.350Z,28.92
2019-03-21T23:40:58.758Z,30.40
2019-03-21T23:43:40.911Z,28.62
2019-03-21T23:46:24.610Z,30.25
2019-03-21T23:49:05.246Z,28.62
2019-03-21T23:51:46.143Z,25.52
2019-03-21T23:54:27.015Z,27.37
2019-03-21T23:57:08.011Z,30.12
2019-03-21T23:59:51.157Z,27.13
